sensor_id;sensor_type;location;lat;lon;timestamp;P1;durP1;ratioP1;P2;durP2;ratioP2
11518;SDS011;5816;48.228;14.116;2023-07-13T04:44:34;22.20;;;20.37;;
11518;SDS011;5816;48.228;14.116;2023-07-13T04:49:36;22.67;;;20.83;;
11518;SDS011;5816;48.228;14.116;2023-07-13T04:54:38;21.97;;;20.03;;
11518;SDS011;5816;48.228;14.116;2023-07-13T04:59:40;22.50;;;20.80;;
11518;SDS011;5816;48.228;14.116;2023-07-13T05:04:45;23.03;;;21.10;;
11518;SDS011;5816;48.228;14.116;2023-07-13T05:09:48;23.30;;;21.33;;
11518;SDS011;5816;48.228;14.116;2023-07-13T05:14:50;22.53;;;20.90;;
11518;SDS011;5816;48.228;14.116;2023-07-13T05:19:52;23.43;;;21.47;;
11518;SDS011;5816;48.228;14.116;2023-07-13T05:24:54;22.37;;;20.57;;
11518;SDS011;5816;48.228;14.116;2023-07-13T05:29:56;22.90;;;21.30;;
11518;SDS011;5816;48.228;14.116;2023-07-13T05:34:58;23.27;;;21.50;;
11518;SDS011;5816;48.228;14.116;2023-07-13T05:39:59;22.27;;;20.73;;
11518;SDS011;5816;48.228;14.116;2023-07-13T05:45:01;23.80;;;22.00;;
11518;SDS011;5816;48.228;14.116;2023-07-13T05:50:04;23.17;;;21.47;;
11518;SDS011;5816;48.228;14.116;2023-07-13T05:55:07;23.43;;;21.63;;
11518;SDS011;5816;48.228;14.116;2023-07-13T06:00:09;23.03;;;21.43;;
11518;SDS011;5816;48.228;14.116;2023-07-13T06:05:12;23.10;;;21.30;;
11518;SDS011;5816;48.228;14.116;2023-07-13T06:10:14;23.47;;;21.67;;
11518;SDS011;5816;48.228;14.116;2023-07-13T06:15:15;22.93;;;21.33;;
11518;SDS011;5816;48.228;14.116;2023-07-13T06:20:19;24.73;;;22.53;;
11518;SDS011;5816;48.228;14.116;2023-07-13T06:25:23;24.03;;;22.13;;
11518;SDS011;5816;48.228;14.116;2023-07-13T06:30:25;22.60;;;21.10;;
11518;SDS011;5816;48.228;14.116;2023-07-13T06:35:28;22.93;;;21.30;;
11518;SDS011;5816;48.228;14.116;2023-07-13T06:40:30;22.37;;;20.83;;
11518;SDS011;5816;48.228;14.116;2023-07-13T06:45:42;23.27;;;21.63;;
11518;SDS011;5816;48.228;14.116;2023-07-13T06:50:47;22.10;;;20.60;;
11518;SDS011;5816;48.228;14.116;2023-07-13T06:55:51;22.97;;;21.17;;
11518;SDS011;5816;48.228;14.116;2023-07-13T07:00:53;21.70;;;20.10;;
11518;SDS011;5816;48.228;14.116;2023-07-13T07:06:17;21.50;;;20.07;;
11518;SDS011;5816;48.228;14.116;2023-07-13T07:11:23;22.03;;;20.43;;
11518;SDS011;5816;48.228;14.116;2023-07-13T07:16:26;22.07;;;20.53;;
11518;SDS011;5816;48.228;14.116;2023-07-13T07:21:28;21.43;;;20.00;;
11518;SDS011;5816;48.228;14.116;2023-07-13T07:26:30;21.77;;;20.27;;
11518;SDS011;5816;48.228;14.116;2023-07-13T07:31:52;22.23;;;20.73;;
11518;SDS011;5816;48.228;14.116;2023-07-13T07:36:59;22.10;;;20.90;;
11518;SDS011;5816;48.228;14.116;2023-07-13T07:42:08;22.63;;;21.23;;
11518;SDS011;5816;48.228;14.116;2023-07-13T07:47:10;22.80;;;21.20;;
11518;SDS011;5816;48.228;14.116;2023-07-13T07:52:12;22.40;;;21.00;;
11518;SDS011;5816;48.228;14.116;2023-07-13T07:57:14;22.57;;;20.87;;
11518;SDS011;5816;48.228;14.116;2023-07-13T08:02:36;21.70;;;20.20;;
11518;SDS011;5816;48.228;14.116;2023-07-13T08:07:42;20.97;;;19.73;;
11518;SDS011;5816;48.228;14.116;2023-07-13T08:12:44;20.63;;;19.33;;
11518;SDS011;5816;48.228;14.116;2023-07-13T08:18:06;20.83;;;19.43;;
11518;SDS011;5816;48.228;14.116;2023-07-13T08:23:10;21.20;;;20.00;;
11518;SDS011;5816;48.228;14.116;2023-07-13T08:28:12;22.17;;;20.77;;
11518;SDS011;5816;48.228;14.116;2023-07-13T08:33:13;20.30;;;18.93;;
11518;SDS011;5816;48.228;14.116;2023-07-13T08:38:16;20.87;;;19.60;;
11518;SDS011;5816;48.228;14.116;2023-07-13T08:43:20;21.37;;;19.87;;
11518;SDS011;5816;48.228;14.116;2023-07-13T08:48:39;21.20;;;19.90;;
11518;SDS011;5816;48.228;14.116;2023-07-13T08:53:46;20.70;;;19.30;;
11518;SDS011;5816;48.228;14.116;2023-07-13T08:58:57;21.57;;;20.20;;
11518;SDS011;5816;48.228;14.116;2023-07-13T09:04:11;22.27;;;20.70;;
11518;SDS011;5816;48.228;14.116;2023-07-13T09:10:04;21.13;;;19.83;;
11518;SDS011;5816;48.228;14.116;2023-07-13T09:14:49;21.27;;;19.80;;
11518;SDS011;5816;48.228;14.116;2023-07-13T09:19:59;21.33;;;20.07;;
11518;SDS011;5816;48.228;14.116;2023-07-13T09:25:24;20.27;;;18.97;;
11518;SDS011;5816;48.228;14.116;2023-07-13T09:30:34;20.63;;;19.30;;
11518;SDS011;5816;48.228;14.116;2023-07-13T09:35:58;19.40;;;18.23;;
11518;SDS011;5816;48.228;14.116;2023-07-13T09:41:21;19.37;;;18.17;;
11518;SDS011;5816;48.228;14.116;2023-07-13T09:46:31;19.60;;;18.20;;
11518;SDS011;5816;48.228;14.116;2023-07-13T09:51:32;19.50;;;18.20;;
11518;SDS011;5816;48.228;14.116;2023-07-13T09:56:35;19.57;;;18.30;;
11518;SDS011;5816;48.228;14.116;2023-07-13T10:01:37;19.30;;;18.20;;
11518;SDS011;5816;48.228;14.116;2023-07-13T10:06:40;19.90;;;18.33;;
11518;SDS011;5816;48.228;14.116;2023-07-13T10:11:44;19.60;;;18.30;;
11518;SDS011;5816;48.228;14.116;2023-07-13T10:16:46;19.90;;;18.50;;
11518;SDS011;5816;48.228;14.116;2023-07-13T10:27:17;20.27;;;18.97;;
11518;SDS011;5816;48.228;14.116;2023-07-13T10:32:21;19.70;;;18.50;;
11518;SDS011;5816;48.228;14.116;2023-07-13T10:37:26;20.13;;;18.63;;
11518;SDS011;5816;48.228;14.116;2023-07-13T10:42:37;19.70;;;18.30;;
11518;SDS011;5816;48.228;14.116;2023-07-13T10:47:43;20.03;;;18.63;;
11518;SDS011;5816;48.228;14.116;2023-07-13T10:52:47;20.03;;;18.57;;
11518;SDS011;5816;48.228;14.116;2023-07-13T10:57:51;19.70;;;18.27;;
11518;SDS011;5816;48.228;14.116;2023-07-13T11:03:00;19.30;;;18.13;;
11518;SDS011;5816;48.228;14.116;2023-07-13T11:08:50;19.37;;;18.03;;
11518;SDS011;5816;48.228;14.116;2023-07-13T11:34:36;18.80;;;17.60;;
11518;SDS011;5816;48.228;14.116;2023-07-13T11:39:41;19.10;;;17.80;;
11518;SDS011;5816;48.228;14.116;2023-07-13T11:44:49;18.80;;;17.70;;
11518;SDS011;5816;48.228;14.116;2023-07-13T11:50:17;18.97;;;17.87;;
11518;SDS011;5816;48.228;14.116;2023-07-13T11:55:23;19.17;;;17.87;;
11518;SDS011;5816;48.228;14.116;2023-07-13T12:00:28;19.37;;;18.00;;
11518;SDS011;5816;48.228;14.116;2023-07-13T12:05:35;18.80;;;17.60;;
11518;SDS011;5816;48.228;14.116;2023-07-13T12:10:38;19.50;;;18.10;;
11518;SDS011;5816;48.228;14.116;2023-07-13T12:15:40;19.10;;;17.90;;
11518;SDS011;5816;48.228;14.116;2023-07-13T12:20:45;19.57;;;18.30;;
11518;SDS011;5816;48.228;14.116;2023-07-13T12:25:48;19.83;;;18.63;;
11518;SDS011;5816;48.228;14.116;2023-07-13T12:30:51;17.97;;;16.73;;
11518;SDS011;5816;48.228;14.116;2023-07-13T12:36:00;17.47;;;16.30;;
11518;SDS011;5816;48.228;14.116;2023-07-13T12:41:04;17.93;;;16.87;;
11518;SDS011;5816;48.228;14.116;2023-07-13T12:46:15;18.63;;;17.30;;
11518;SDS011;5816;48.228;14.116;2023-07-13T12:51:21;17.60;;;16.40;;
11518;SDS011;5816;48.228;14.116;2023-07-13T12:56:26;18.10;;;17.00;;
11518;SDS011;5816;48.228;14.116;2023-07-13T13:01:32;18.30;;;17.00;;
11518;SDS011;5816;48.228;14.116;2023-07-13T13:06:38;17.87;;;16.60;;
11518;SDS011;5816;48.228;14.116;2023-07-13T13:11:42;19.40;;;17.87;;
11518;SDS011;5816;48.228;14.116;2023-07-13T13:16:47;18.90;;;17.70;;
11518;SDS011;5816;48.228;14.116;2023-07-13T13:21:51;18.37;;;17.27;;
11518;SDS011;5816;48.228;14.116;2023-07-13T13:26:54;16.80;;;15.90;;
11518;SDS011;5816;48.228;14.116;2023-07-13T13:31:58;17.52;;;16.52;;
11518;SDS011;5816;48.228;14.116;2023-07-13T13:37:01;17.17;;;16.05;;
11518;SDS011;5816;48.228;14.116;2023-07-13T13:42:02;17.20;;;16.10;;
11518;SDS011;5816;48.228;14.116;2023-07-13T13:47:07;18.10;;;16.90;;
11518;SDS011;5816;48.228;14.116;2023-07-13T13:52:31;17.23;;;16.25;;
11518;SDS011;5816;48.228;14.116;2023-07-13T13:57:33;16.60;;;15.70;;
11518;SDS011;5816;48.228;14.116;2023-07-13T14:02:35;17.10;;;16.10;;
11518;SDS011;5816;48.228;14.116;2023-07-13T14:07:37;17.40;;;16.20;;
11518;SDS011;5816;48.228;14.116;2023-07-13T14:12:39;17.80;;;16.47;;
11518;SDS011;5816;48.228;14.116;2023-07-13T14:17:41;17.33;;;16.10;;
11518;SDS011;5816;48.228;14.116;2023-07-13T14:22:45;16.38;;;15.40;;
11518;SDS011;5816;48.228;14.116;2023-07-13T14:27:53;17.00;;;16.03;;
11518;SDS011;5816;48.228;14.116;2023-07-13T14:32:59;16.60;;;15.65;;
11518;SDS011;5816;48.228;14.116;2023-07-13T14:38:00;17.17;;;15.97;;
11518;SDS011;5816;48.228;14.116;2023-07-13T14:43:02;17.83;;;16.60;;
11518;SDS011;5816;48.228;14.116;2023-07-13T14:48:05;16.63;;;15.63;;
11518;SDS011;5816;48.228;14.116;2023-07-13T14:53:11;15.98;;;15.07;;
11518;SDS011;5816;48.228;14.116;2023-07-13T14:58:14;15.55;;;14.65;;
11518;SDS011;5816;48.228;14.116;2023-07-13T15:03:17;16.63;;;15.65;;
11518;SDS011;5816;48.228;14.116;2023-07-13T15:08:23;15.85;;;14.77;;
11518;SDS011;5816;48.228;14.116;2023-07-13T15:13:25;16.55;;;15.57;;
11518;SDS011;5816;48.228;14.116;2023-07-13T15:18:27;15.43;;;14.52;;
11518;SDS011;5816;48.228;14.116;2023-07-13T15:23:29;16.27;;;15.18;;
11518;SDS011;5816;48.228;14.116;2023-07-13T15:28:31;15.32;;;14.52;;
11518;SDS011;5816;48.228;14.116;2023-07-13T15:33:33;15.48;;;14.68;;
11518;SDS011;5816;48.228;14.116;2023-07-13T15:38:37;15.80;;;14.80;;
11518;SDS011;5816;48.228;14.116;2023-07-13T15:43:39;15.98;;;14.98;;
11518;SDS011;5816;48.228;14.116;2023-07-13T15:48:41;15.50;;;14.60;;
11518;SDS011;5816;48.228;14.116;2023-07-13T15:53:43;14.75;;;13.95;;
11518;SDS011;5816;48.228;14.116;2023-07-13T15:58:46;15.00;;;14.18;;
11518;SDS011;5816;48.228;14.116;2023-07-13T16:03:48;14.95;;;14.05;;
11518;SDS011;5816;48.228;14.116;2023-07-13T16:08:50;14.75;;;13.95;;
11518;SDS011;5816;48.228;14.116;2023-07-13T16:13:53;16.23;;;15.23;;
11518;SDS011;5816;48.228;14.116;2023-07-13T16:19:01;15.93;;;14.80;;
11518;SDS011;5816;48.228;14.116;2023-07-13T16:24:05;15.20;;;14.38;;
11518;SDS011;5816;48.228;14.116;2023-07-13T16:29:19;14.68;;;13.93;;
11518;SDS011;5816;48.228;14.116;2023-07-13T16:34:25;15.55;;;14.50;;
11518;SDS011;5816;48.228;14.116;2023-07-13T16:39:27;16.42;;;15.40;;
11518;SDS011;5816;48.228;14.116;2023-07-13T16:44:29;15.50;;;14.52;;
11518;SDS011;5816;48.228;14.116;2023-07-13T16:49:34;16.25;;;15.05;;
11518;SDS011;5816;48.228;14.116;2023-07-13T16:54:38;15.32;;;14.15;;
11518;SDS011;5816;48.228;14.116;2023-07-13T16:59:40;15.20;;;14.40;;
11518;SDS011;5816;48.228;14.116;2023-07-13T17:04:43;14.40;;;13.55;;
11518;SDS011;5816;48.228;14.116;2023-07-13T17:09:47;16.30;;;14.95;;
11518;SDS011;5816;48.228;14.116;2023-07-13T17:14:49;14.93;;;14.02;;
11518;SDS011;5816;48.228;14.116;2023-07-13T17:19:51;14.82;;;14.02;;
11518;SDS011;5816;48.228;14.116;2023-07-13T17:24:53;15.05;;;14.15;;
11518;SDS011;5816;48.228;14.116;2023-07-13T17:29:59;15.43;;;14.48;;
11518;SDS011;5816;48.228;14.116;2023-07-13T17:35:01;15.38;;;14.48;;
11518;SDS011;5816;48.228;14.116;2023-07-13T17:40:17;14.65;;;13.63;;
11518;SDS011;5816;48.228;14.116;2023-07-13T17:45:22;15.38;;;14.48;;
11518;SDS011;5816;48.228;14.116;2023-07-13T17:50:27;14.80;;;14.00;;
11518;SDS011;5816;48.228;14.116;2023-07-13T17:55:37;15.18;;;14.23;;
11518;SDS011;5816;48.228;14.116;2023-07-13T18:00:39;14.73;;;13.77;;
11518;SDS011;5816;48.228;14.116;2023-07-13T18:05:45;14.77;;;13.83;;
11518;SDS011;5816;48.228;14.116;2023-07-13T18:10:48;15.13;;;14.25;;
11518;SDS011;5816;48.228;14.116;2023-07-13T18:15:50;14.97;;;13.93;;
11518;SDS011;5816;48.228;14.116;2023-07-13T18:20:55;14.87;;;13.97;;
11518;SDS011;5816;48.228;14.116;2023-07-13T18:25:56;15.20;;;14.40;;
11518;SDS011;5816;48.228;14.116;2023-07-13T18:30:58;15.20;;;14.40;;
11518;SDS011;5816;48.228;14.116;2023-07-13T18:36:01;14.98;;;14.18;;
11518;SDS011;5816;48.228;14.116;2023-07-13T18:41:07;15.70;;;14.80;;
11518;SDS011;5816;48.228;14.116;2023-07-13T18:46:13;15.10;;;14.20;;
11518;SDS011;5816;48.228;14.116;2023-07-13T18:51:20;14.70;;;13.90;;
11518;SDS011;5816;48.228;14.116;2023-07-13T18:56:25;14.40;;;13.50;;
11518;SDS011;5816;48.228;14.116;2023-07-13T19:01:31;14.77;;;13.70;;
11518;SDS011;5816;48.228;14.116;2023-07-13T19:06:38;14.73;;;13.83;;
11518;SDS011;5816;48.228;14.116;2023-07-13T19:11:40;14.53;;;13.63;;
11518;SDS011;5816;48.228;14.116;2023-07-13T19:16:42;14.80;;;13.70;;
11518;SDS011;5816;48.228;14.116;2023-07-13T19:21:45;14.83;;;13.83;;
11518;SDS011;5816;48.228;14.116;2023-07-13T19:26:49;14.73;;;13.83;;
11518;SDS011;5816;48.228;14.116;2023-07-13T19:31:54;15.23;;;14.27;;
11518;SDS011;5816;48.228;14.116;2023-07-13T19:37:03;14.67;;;13.60;;
11518;SDS011;5816;48.228;14.116;2023-07-13T19:42:26;14.80;;;13.97;;
11518;SDS011;5816;48.228;14.116;2023-07-13T19:47:30;15.13;;;14.23;;
11518;SDS011;5816;48.228;14.116;2023-07-13T19:52:32;14.43;;;13.60;;
11518;SDS011;5816;48.228;14.116;2023-07-13T19:57:34;14.03;;;13.13;;
11518;SDS011;5816;48.228;14.116;2023-07-13T20:02:36;13.53;;;12.73;;
11518;SDS011;5816;48.228;14.116;2023-07-13T20:07:38;14.10;;;13.00;;
11518;SDS011;5816;48.228;14.116;2023-07-13T20:12:39;13.90;;;12.93;;
11518;SDS011;5816;48.228;14.116;2023-07-13T20:17:41;13.90;;;13.10;;
11518;SDS011;5816;48.228;14.116;2023-07-13T20:22:45;14.20;;;13.40;;
11518;SDS011;5816;48.228;14.116;2023-07-13T20:27:48;13.63;;;12.73;;
11518;SDS011;5816;48.228;14.116;2023-07-13T20:32:50;14.23;;;13.17;;
11518;SDS011;5816;48.228;14.116;2023-07-13T20:37:56;13.87;;;13.07;;
11518;SDS011;5816;48.228;14.116;2023-07-13T20:55:37;13.60;;;12.90;;
11518;SDS011;5816;48.228;14.116;2023-07-13T21:00:40;13.93;;;12.90;;
11518;SDS011;5816;48.228;14.116;2023-07-13T21:05:43;14.50;;;13.70;;
11518;SDS011;5816;48.228;14.116;2023-07-13T21:10:45;14.63;;;13.80;;
11518;SDS011;5816;48.228;14.116;2023-07-13T21:15:47;14.30;;;13.40;;
11518;SDS011;5816;48.228;14.116;2023-07-13T21:20:50;14.17;;;13.37;;
11518;SDS011;5816;48.228;14.116;2023-07-13T21:25:54;14.27;;;13.40;;
11518;SDS011;5816;48.228;14.116;2023-07-13T21:31:00;14.17;;;13.27;;
11518;SDS011;5816;48.228;14.116;2023-07-13T21:36:04;14.40;;;13.60;;
